createdAt,value
2018-12-16T00:01:10.147Z,78.25
2018-12-16T00:03:38.501Z,78.26
2018-12-16T00:06:07.169Z,77.09
2018-12-16T00:08:35.486Z,77.53
2018-12-16T00:11:03.806Z,78.27
2018-12-16T00:13:32.444Z,78.94
2018-12-16T00:16:00.895Z,79.41
2018-12-16T00:18:29.184Z,78.51
2018-12-16T00:20:57.555Z,78.18
2018-12-16T00:23:25.864Z,78.78
2018-12-16T00:25:54.177Z,79.51
2018-12-16T00:28:22.593Z,78.87
2018-12-16T00:30:50.944Z,78.90
2018-12-16T00:33:19.280Z,79.42
2018-12-16T00:35:47.610Z,79.08
2018-12-16T00:38:15.995Z,79.05
2018-12-16T00:40:44.541Z,79.19
2018-12-16T00:43:12.970Z,78.82
2018-12-16T00:45:41.257Z,78.22
2018-12-16T00:48:09.662Z,78.06
2018-12-16T00:50:38.525Z,79.17
2018-12-16T00:53:07.136Z,79.97
2018-12-16T00:55:35.519Z,78.67
2018-12-16T00:58:03.863Z,78.54
2018-12-16T01:00:32.215Z,77.95
2018-12-16T01:03:01.443Z,78.52
2018-12-16T01:05:29.950Z,78.20
2018-12-16T01:07:58.428Z,80.30
2018-12-16T01:10:27.702Z,79.38
2018-12-16T01:12:57.414Z,79.62
2018-12-16T01:15:28.284Z,79.10
2018-12-16T01:17:56.913Z,79.31
2018-12-16T01:20:25.369Z,79.40
2018-12-16T01:22:56.909Z,79.78
2018-12-16T01:25:25.305Z,79.23
2018-12-16T01:27:53.862Z,79.63
2018-12-16T01:30:22.191Z,79.91
2018-12-16T01:32:50.603Z,79.87
2018-12-16T01:35:19.069Z,80.01
2018-12-16T01:37:47.469Z,80.14
2018-12-16T01:40:16.632Z,79.46
2018-12-16T01:42:44.990Z,78.73
2018-12-16T01:45:13.492Z,79.87
2018-12-16T01:47:41.815Z,78.81
2018-12-16T01:50:10.304Z,79.08
2018-12-16T01:52:38.790Z,79.46
2018-12-16T01:55:08.629Z,79.50
2018-12-16T01:57:37.073Z,77.81
2018-12-16T02:00:09.604Z,78.44
2018-12-16T02:02:37.961Z,79.09
2018-12-16T02:05:06.813Z,78.88
2018-12-16T02:07:35.134Z,78.86
2018-12-16T02:10:04.385Z,77.88
2018-12-16T02:12:32.685Z,79.61
2018-12-16T02:15:00.980Z,78.62
2018-12-16T02:17:29.550Z,78.97
2018-12-16T02:19:57.837Z,78.32
2018-12-16T02:22:26.167Z,79.05
2018-12-16T02:24:54.597Z,77.89
2018-12-16T02:27:22.928Z,78.19
2018-12-16T02:29:52.082Z,78.67
2018-12-16T02:32:20.436Z,78.95
2018-12-16T02:34:48.837Z,78.98
2018-12-16T02:37:17.350Z,78.24
2018-12-16T02:39:45.820Z,79.18
2018-12-16T02:42:14.293Z,79.40
2018-12-16T02:44:42.622Z,79.19
2018-12-16T02:47:10.966Z,79.24
2018-12-16T02:49:39.347Z,79.92
2018-12-16T02:52:07.730Z,79.83
2018-12-16T02:54:36.049Z,79.17
2018-12-16T02:57:04.422Z,79.62
2018-12-16T02:59:32.796Z,78.37
2018-12-16T03:02:01.313Z,78.34
2018-12-16T03:04:29.720Z,77.36
2018-12-16T03:06:58.035Z,78.86
2018-12-16T03:09:26.571Z,79.31
2018-12-16T03:11:55.106Z,79.35
2018-12-16T03:14:23.508Z,78.43
2018-12-16T03:16:52.000Z,78.22
2018-12-16T03:19:20.289Z,77.81
2018-12-16T03:21:48.641Z,79.31
2018-12-16T03:24:17.117Z,79.28
2018-12-16T03:26:45.458Z,78.32
2018-12-16T03:29:13.770Z,78.78
2018-12-16T03:31:42.092Z,79.11
2018-12-16T03:34:10.511Z,78.65
2018-12-16T03:36:38.816Z,77.15
2018-12-16T03:39:07.743Z,76.12
2018-12-16T03:41:36.535Z,75.48
2018-12-16T03:44:05.103Z,77.07
2018-12-16T03:46:33.534Z,76.99
2018-12-16T03:49:01.887Z,77.63
2018-12-16T03:51:30.161Z,77.72
2018-12-16T03:53:58.487Z,77.98
2018-12-16T03:56:26.926Z,76.92
2018-12-16T03:59:21.918Z,77.75
2018-12-16T04:02:04.688Z,77.17
2018-12-16T04:04:33.219Z,76.58
2018-12-16T04:07:01.585Z,76.82
2018-12-16T04:09:30.018Z,75.92
2018-12-16T04:11:58.371Z,76.76
2018-12-16T04:14:26.675Z,76.75
2018-12-16T04:16:55.005Z,76.36
2018-12-16T04:19:23.317Z,76.15
2018-12-16T04:21:51.675Z,75.72
2018-12-16T04:24:20.006Z,75.13
2018-12-16T04:26:48.753Z,75.36
2018-12-16T04:29:17.043Z,75.58
2018-12-16T04:31:45.423Z,75.80
2018-12-16T04:34:13.789Z,75.67
2018-12-16T04:36:42.139Z,75.31
2018-12-16T04:39:10.498Z,75.73
2018-12-16T04:41:38.944Z,75.14
2018-12-16T04:44:07.348Z,75.19
2018-12-16T04:46:35.683Z,75.18
2018-12-16T04:49:04.174Z,76.07
2018-12-16T04:51:32.465Z,76.20
2018-12-16T04:54:00.790Z,76.03
2018-12-16T04:56:29.200Z,75.82
2018-12-16T04:58:57.485Z,74.42
2018-12-16T05:01:25.865Z,74.05
2018-12-16T05:03:54.174Z,73.80
2018-12-16T05:06:22.466Z,74.00
2018-12-16T05:08:50.749Z,73.68
2018-12-16T05:11:19.364Z,73.95
2018-12-16T05:13:47.660Z,73.85
2018-12-16T05:16:15.966Z,73.76
2018-12-16T05:18:44.281Z,74.41
2018-12-16T05:21:12.562Z,74.78
2018-12-16T05:23:42.082Z,74.06
2018-12-16T05:26:11.172Z,74.94
2018-12-16T05:28:39.467Z,73.94
2018-12-16T05:31:08.294Z,73.66
2018-12-16T05:33:37.553Z,73.13
2018-12-16T05:36:06.085Z,73.19
2018-12-16T05:38:34.403Z,73.66
2018-12-16T05:41:02.801Z,74.58
2018-12-16T05:43:31.140Z,74.54
2018-12-16T05:45:59.552Z,74.68
2018-12-16T05:48:27.868Z,74.60
2018-12-16T05:50:56.174Z,74.56
2018-12-16T05:53:24.494Z,74.56
2018-12-16T05:55:53.106Z,73.69
2018-12-16T05:58:21.428Z,74.01
2018-12-16T06:00:49.732Z,74.35
2018-12-16T06:03:18.034Z,74.45
2018-12-16T06:05:46.380Z,74.91
2018-12-16T06:08:14.690Z,74.42
2018-12-16T06:10:43.075Z,75.29
2018-12-16T06:13:11.398Z,74.77
2018-12-16T06:15:39.786Z,74.01
2018-12-16T06:18:08.577Z,74.64
2018-12-16T06:20:36.900Z,76.27
2018-12-16T06:23:05.188Z,76.20
2018-12-16T06:25:33.548Z,77.30
2018-12-16T06:28:01.861Z,77.47
2018-12-16T06:30:31.492Z,76.65
2018-12-16T06:32:59.827Z,77.03
2018-12-16T06:35:28.126Z,76.20
2018-12-16T06:37:56.411Z,77.72
2018-12-16T06:40:25.303Z,77.19
2018-12-16T06:42:53.599Z,77.58
2018-12-16T06:45:21.948Z,77.29
2018-12-16T06:47:50.284Z,76.28
2018-12-16T06:50:18.610Z,76.08
2018-12-16T06:52:46.889Z,76.13
2018-12-16T06:55:15.237Z,75.13
2018-12-16T06:57:43.554Z,76.12
2018-12-16T07:00:13.326Z,75.38
2018-12-16T07:02:41.925Z,74.88
2018-12-16T07:05:10.264Z,74.03
2018-12-16T07:07:38.570Z,75.05
2018-12-16T07:10:06.929Z,76.56
2018-12-16T07:12:35.211Z,75.83
2018-12-16T07:15:03.563Z,75.18
2018-12-16T07:17:31.973Z,75.94
2018-12-16T07:20:00.301Z,74.55
2018-12-16T07:22:28.738Z,74.80
2018-12-16T07:24:57.410Z,74.69
2018-12-16T07:27:25.723Z,74.54
2018-12-16T07:29:54.051Z,74.85
2018-12-16T07:32:22.376Z,74.82
2018-12-16T07:34:50.701Z,75.18
2018-12-16T07:37:19.463Z,75.29
2018-12-16T07:39:47.916Z,74.58
2018-12-16T07:42:16.335Z,75.00
2018-12-16T07:44:44.825Z,75.27
2018-12-16T07:47:13.536Z,74.05
2018-12-16T07:49:41.871Z,73.89
2018-12-16T07:52:10.213Z,73.44
2018-12-16T07:54:38.639Z,72.77
2018-12-16T07:57:06.967Z,72.37
2018-12-16T07:59:35.365Z,72.54
2018-12-16T08:02:03.731Z,71.87
2018-12-16T08:04:32.145Z,71.87
2018-12-16T08:07:00.574Z,70.96
2018-12-16T08:09:28.985Z,70.97
2018-12-16T08:11:57.309Z,70.45
2018-12-16T08:14:25.653Z,71.63
2018-12-16T08:16:54.449Z,71.71
2018-12-16T08:19:23.207Z,70.63
2018-12-16T08:21:51.531Z,71.31
2018-12-16T08:24:23.107Z,70.67
2018-12-16T08:26:50.279Z,69.75
2018-12-16T08:29:18.574Z,69.38
2018-12-16T08:31:47.193Z,70.41
2018-12-16T08:34:15.539Z,69.70
2018-12-16T08:36:43.831Z,69.25
2018-12-16T08:39:12.183Z,69.34
2018-12-16T08:41:40.470Z,68.71
2018-12-16T08:44:08.802Z,68.91
2018-12-16T08:46:37.157Z,68.23
2018-12-16T08:49:05.425Z,67.99
2018-12-16T08:51:33.745Z,68.15
2018-12-16T08:54:02.549Z,68.10
2018-12-16T08:56:30.864Z,67.46
2018-12-16T08:58:59.170Z,67.56
2018-12-16T09:01:29.264Z,66.42
2018-12-16T09:03:57.870Z,65.78
2018-12-16T09:06:26.204Z,65.66
2018-12-16T09:08:54.970Z,65.97
2018-12-16T09:11:23.503Z,66.15
2018-12-16T09:13:51.817Z,66.78
2018-12-16T09:16:20.322Z,65.63
2018-12-16T09:18:48.684Z,66.16
2018-12-16T09:21:17.218Z,64.94
2018-12-16T09:23:45.600Z,65.58
2018-12-16T09:26:13.939Z,67.00
2018-12-16T09:28:42.277Z,66.93
2018-12-16T09:31:10.620Z,66.87
2018-12-16T09:33:38.951Z,66.09
2018-12-16T09:36:07.350Z,66.20
2018-12-16T09:38:35.761Z,65.38
2018-12-16T09:41:04.095Z,64.57
2018-12-16T09:43:32.435Z,64.57
2018-12-16T09:46:00.818Z,64.42
2018-12-16T09:48:29.118Z,64.94
2018-12-16T09:50:57.448Z,64.94
2018-12-16T09:53:25.807Z,65.36
2018-12-16T09:55:54.114Z,63.71
2018-12-16T09:58:22.443Z,64.34
2018-12-16T10:00:50.882Z,64.49
2018-12-16T10:03:19.225Z,64.12
2018-12-16T10:05:47.606Z,64.51
2018-12-16T10:08:15.919Z,64.37
2018-12-16T10:10:44.277Z,64.57
2018-12-16T10:13:12.604Z,64.64
2018-12-16T10:15:40.958Z,65.24
2018-12-16T10:18:09.249Z,64.95
2018-12-16T10:20:37.578Z,64.61
2018-12-16T10:23:06.238Z,63.97
2018-12-16T10:25:34.525Z,64.18
2018-12-16T10:28:02.963Z,63.46
2018-12-16T10:30:31.337Z,63.35
2018-12-16T10:32:59.696Z,63.80
2018-12-16T10:35:28.020Z,62.82
2018-12-16T10:37:56.411Z,63.25
2018-12-16T10:40:24.785Z,63.04
2018-12-16T10:42:53.114Z,62.66
2018-12-16T10:45:21.987Z,62.92
2018-12-16T10:47:50.266Z,62.85
2018-12-16T10:50:18.602Z,62.84
2018-12-16T10:52:46.960Z,62.51
2018-12-16T10:55:15.285Z,62.65
2018-12-16T10:57:43.579Z,63.09
2018-12-16T11:00:20.481Z,62.56
2018-12-16T11:02:48.862Z,61.96
2018-12-16T11:05:17.537Z,62.83
2018-12-16T11:07:50.621Z,63.13
2018-12-16T11:10:18.991Z,63.05
2018-12-16T11:12:48.081Z,62.67
2018-12-16T11:15:16.808Z,62.12
2018-12-16T11:17:45.137Z,62.68
2018-12-16T11:20:13.495Z,63.25
2018-12-16T11:22:42.202Z,62.95
2018-12-16T11:25:11.579Z,62.80
2018-12-16T11:27:39.961Z,63.23
2018-12-16T11:30:09.958Z,62.40
2018-12-16T11:32:38.279Z,62.20
2018-12-16T11:35:06.955Z,62.06
2018-12-16T11:37:35.378Z,62.30
2018-12-16T11:40:04.800Z,62.22
2018-12-16T11:42:33.143Z,63.49
2018-12-16T11:45:01.478Z,61.86
2018-12-16T11:47:29.774Z,62.38
2018-12-16T11:49:58.086Z,63.79
2018-12-16T11:52:26.808Z,62.57
2018-12-16T11:54:55.254Z,62.62
2018-12-16T11:57:23.616Z,62.18
2018-12-16T11:59:51.948Z,63.24
2018-12-16T12:02:20.323Z,63.02
2018-12-16T12:04:48.634Z,61.09
2018-12-16T12:07:16.969Z,61.63
2018-12-16T12:09:45.320Z,61.53
2018-12-16T12:12:13.702Z,62.04
2018-12-16T12:14:42.488Z,62.80
2018-12-16T12:17:10.840Z,63.05
2018-12-16T12:19:39.221Z,62.87
2018-12-16T12:22:07.690Z,63.59
2018-12-16T12:24:36.039Z,63.14
2018-12-16T12:27:04.385Z,62.64
2018-12-16T12:29:32.845Z,61.54
2018-12-16T12:32:01.174Z,62.45
2018-12-16T12:34:29.499Z,62.23
2018-12-16T12:36:57.909Z,62.29
2018-12-16T12:39:26.238Z,62.23
2018-12-16T12:41:54.574Z,61.66
2018-12-16T12:44:22.926Z,62.44
2018-12-16T12:46:51.319Z,62.46
2018-12-16T12:49:19.642Z,62.04
2018-12-16T12:51:48.035Z,60.82
2018-12-16T12:54:16.405Z,62.41
2018-12-16T12:56:44.712Z,63.43
2018-12-16T12:59:13.508Z,62.62
2018-12-16T13:01:41.900Z,62.97
2018-12-16T13:04:10.200Z,62.77
2018-12-16T13:06:38.613Z,63.83
2018-12-16T13:09:07.812Z,62.89
2018-12-16T13:11:36.177Z,62.51
2018-12-16T13:14:04.555Z,62.24
2018-12-16T13:16:32.853Z,62.37
2018-12-16T13:19:01.353Z,62.44
2018-12-16T13:21:29.779Z,62.72
2018-12-16T13:23:58.067Z,62.92
2018-12-16T13:26:26.398Z,62.62
2018-12-16T13:28:54.714Z,62.50
2018-12-16T13:31:23.009Z,63.25
2018-12-16T13:33:51.363Z,63.23
2018-12-16T13:36:19.711Z,62.91
2018-12-16T13:38:48.050Z,63.27
2018-12-16T13:41:16.363Z,62.35
2018-12-16T13:43:44.841Z,62.51
2018-12-16T13:46:13.201Z,62.34
2018-12-16T13:48:41.535Z,62.46
2018-12-16T13:51:09.943Z,62.79
2018-12-16T13:53:38.312Z,62.96
2018-12-16T13:56:06.632Z,64.15
2018-12-16T13:58:34.998Z,63.97
2018-12-16T14:01:03.313Z,63.77
2018-12-16T14:03:31.633Z,63.34
2018-12-16T14:06:00.112Z,62.54
2018-12-16T14:08:28.478Z,62.79
2018-12-16T14:10:56.860Z,62.51
2018-12-16T14:13:25.274Z,62.95
2018-12-16T14:15:53.595Z,62.87
2018-12-16T14:18:21.941Z,63.28
2018-12-16T14:20:50.299Z,62.34
2018-12-16T14:23:18.583Z,62.78
2018-12-16T14:25:48.198Z,64.19
2018-12-16T14:28:16.905Z,63.85
2018-12-16T14:30:45.274Z,63.47
2018-12-16T14:33:13.643Z,62.87
2018-12-16T14:35:41.963Z,63.42
2018-12-16T14:38:10.596Z,63.68
2018-12-16T14:40:38.940Z,63.29
2018-12-16T14:43:07.256Z,63.70
2018-12-16T14:45:35.773Z,63.11
2018-12-16T14:48:04.227Z,63.02
2018-12-16T14:50:33.775Z,63.88
2018-12-16T14:53:02.182Z,62.59
2018-12-16T14:55:30.533Z,62.81
2018-12-16T14:57:59.015Z,62.60
2018-12-16T15:00:27.497Z,62.99
2018-12-16T15:02:55.812Z,64.33
2018-12-16T15:05:24.459Z,63.82
2018-12-16T15:07:52.864Z,64.33
2018-12-16T15:10:21.297Z,64.73
2018-12-16T15:12:49.830Z,64.75
2018-12-16T15:15:18.777Z,63.69
2018-12-16T15:17:47.283Z,64.95
2018-12-16T15:20:15.631Z,64.53
2018-12-16T15:22:43.953Z,64.39
2018-12-16T15:25:12.246Z,65.58
2018-12-16T15:27:40.641Z,65.70
2018-12-16T15:30:09.472Z,65.54
2018-12-16T15:32:37.787Z,66.45
2018-12-16T15:35:06.266Z,66.67
2018-12-16T15:37:34.591Z,65.72
2018-12-16T15:40:03.027Z,65.78
2018-12-16T15:42:31.370Z,66.51
2018-12-16T15:44:59.977Z,66.17
2018-12-16T15:47:28.453Z,65.61
2018-12-16T15:49:56.983Z,65.55
2018-12-16T15:52:25.347Z,65.77
2018-12-16T15:54:53.703Z,65.98
2018-12-16T15:57:22.238Z,65.83
2018-12-16T15:59:50.560Z,64.88
2018-12-16T16:02:18.875Z,65.81
2018-12-16T16:04:47.254Z,65.92
2018-12-16T16:07:15.584Z,66.04
2018-12-16T16:09:43.901Z,66.85
2018-12-16T16:12:12.213Z,65.03
2018-12-16T16:14:40.604Z,64.85
2018-12-16T16:17:08.936Z,65.68
2018-12-16T16:19:37.613Z,64.88
2018-12-16T16:22:06.005Z,64.34
2018-12-16T16:24:34.281Z,64.80
2018-12-16T16:27:02.647Z,64.34
2018-12-16T16:29:31.009Z,64.94
2018-12-16T16:31:59.375Z,64.57
2018-12-16T16:34:27.697Z,64.54
2018-12-16T16:36:56.147Z,64.46
2018-12-16T16:39:24.432Z,64.46
2018-12-16T16:41:52.839Z,63.62
2018-12-16T16:44:21.121Z,63.32
2018-12-16T16:46:49.756Z,63.90
2018-12-16T16:49:18.106Z,64.44
2018-12-16T16:51:46.401Z,65.61
2018-12-16T16:54:14.693Z,65.66
2018-12-16T16:56:43.010Z,65.32
2018-12-16T16:59:11.302Z,65.24
2018-12-16T17:01:39.629Z,64.76
2018-12-16T17:04:08.026Z,64.86
2018-12-16T17:06:36.319Z,65.58
2018-12-16T17:09:08.045Z,64.79
2018-12-16T17:11:36.498Z,63.90
2018-12-16T17:14:04.885Z,64.59
2018-12-16T17:16:33.176Z,63.99
2018-12-16T17:19:02.625Z,65.32
2018-12-16T17:21:31.570Z,63.67
2018-12-16T17:23:59.882Z,64.47
2018-12-16T17:26:30.254Z,63.46
2018-12-16T17:28:58.640Z,63.64
2018-12-16T17:31:26.960Z,64.26
2018-12-16T17:33:55.288Z,63.99
2018-12-16T17:36:23.591Z,63.60
2018-12-16T17:38:51.912Z,63.67
2018-12-16T17:41:20.959Z,63.65
2018-12-16T17:43:49.264Z,64.39
2018-12-16T17:46:17.575Z,64.13
2018-12-16T17:48:45.995Z,63.47
2018-12-16T17:51:14.313Z,64.96
2018-12-16T17:53:42.857Z,66.10
2018-12-16T17:56:11.205Z,66.84
2018-12-16T17:58:39.519Z,66.51
2018-12-16T18:01:07.893Z,67.67
2018-12-16T18:03:36.234Z,68.83
2018-12-16T18:06:04.660Z,68.17
2018-12-16T18:08:33.005Z,68.46
2018-12-16T18:11:01.534Z,68.60
2018-12-16T18:13:29.887Z,68.01
2018-12-16T18:16:05.423Z,68.43
2018-12-16T18:18:40.718Z,69.18
2018-12-16T18:21:18.604Z,70.09
2018-12-16T18:23:47.213Z,69.90
2018-12-16T18:26:15.506Z,70.80
2018-12-16T18:28:44.133Z,71.39
2018-12-16T18:31:12.480Z,71.19
2018-12-16T18:33:40.830Z,70.87
2018-12-16T18:36:09.253Z,70.58
2018-12-16T18:38:37.531Z,69.86
2018-12-16T18:41:05.959Z,70.30
2018-12-16T18:43:34.417Z,71.32
2018-12-16T18:46:02.857Z,72.17
2018-12-16T18:48:31.263Z,73.15
2018-12-16T18:50:59.913Z,73.38
2018-12-16T18:53:28.466Z,73.35
2018-12-16T18:55:56.757Z,72.67
2018-12-16T18:58:25.061Z,71.93
2018-12-16T19:00:53.408Z,72.71
2018-12-16T19:03:21.759Z,72.32
2018-12-16T19:05:50.382Z,71.95
2018-12-16T19:08:18.695Z,72.70
2018-12-16T19:10:46.994Z,73.07
2018-12-16T19:13:15.450Z,72.60
2018-12-16T19:15:43.773Z,72.47
2018-12-16T19:18:12.063Z,72.58
2018-12-16T19:20:40.659Z,72.63
2018-12-16T19:23:09.395Z,72.62
2018-12-16T19:25:37.736Z,72.21
2018-12-16T19:28:07.403Z,73.70
2018-12-16T19:30:35.744Z,73.72
2018-12-16T19:33:04.241Z,73.01
2018-12-16T19:35:32.796Z,73.37
2018-12-16T19:38:02.448Z,73.35
2018-12-16T19:40:31.479Z,74.23
2018-12-16T19:43:00.082Z,74.16
2018-12-16T19:45:28.411Z,72.67
2018-12-16T19:47:56.731Z,72.96
2018-12-16T19:50:25.113Z,73.69
2018-12-16T19:52:53.417Z,73.29
2018-12-16T19:55:23.234Z,73.55
2018-12-16T19:57:51.769Z,73.77
2018-12-16T20:00:20.066Z,74.29
2018-12-16T20:02:48.372Z,74.10
2018-12-16T20:05:20.613Z,74.34
2018-12-16T20:07:49.503Z,72.57
2018-12-16T20:10:17.879Z,72.35
2018-12-16T20:12:46.344Z,72.56
2018-12-16T20:15:14.678Z,71.96
2018-12-16T20:17:42.979Z,72.98
2018-12-16T20:20:11.749Z,72.16
2018-12-16T20:22:40.067Z,72.18
2018-12-16T20:25:08.593Z,73.04
2018-12-16T20:27:36.931Z,72.93
2018-12-16T20:30:07.707Z,71.73
2018-12-16T20:32:36.037Z,71.17
2018-12-16T20:35:05.548Z,72.11
2018-12-16T20:37:34.723Z,72.73
2018-12-16T20:40:03.232Z,73.07
2018-12-16T20:42:31.816Z,72.37
2018-12-16T20:45:00.122Z,72.56
2018-12-16T20:47:28.445Z,71.37
2018-12-16T20:49:57.493Z,72.06
2018-12-16T20:52:25.791Z,72.71
2018-12-16T20:54:54.123Z,73.37
2018-12-16T20:57:22.504Z,74.63
2018-12-16T20:59:50.919Z,74.89
2018-12-16T21:02:19.297Z,74.58
2018-12-16T21:04:48.110Z,74.70
2018-12-16T21:07:16.433Z,74.15
2018-12-16T21:09:44.761Z,74.34
2018-12-16T21:15:21.617Z,73.44
2018-12-16T21:17:55.317Z,73.70
2018-12-16T21:20:26.686Z,73.33
2018-12-16T21:22:54.964Z,73.60
2018-12-16T21:25:23.569Z,74.53
2018-12-16T21:27:51.853Z,75.39
2018-12-16T21:30:20.198Z,74.84
2018-12-16T21:32:48.580Z,75.19
2018-12-16T21:35:22.746Z,74.94
2018-12-16T21:37:56.653Z,75.23
2018-12-16T21:40:25.258Z,75.86
2018-12-16T21:42:54.062Z,75.47
2018-12-16T21:45:22.501Z,75.73
2018-12-16T21:47:50.943Z,76.26
2018-12-16T21:50:19.253Z,75.94
2018-12-16T21:52:47.600Z,76.63
2018-12-16T21:55:15.944Z,76.79
2018-12-16T21:57:44.288Z,76.68
2018-12-16T22:00:13.624Z,76.22
2018-12-16T22:02:41.915Z,76.49
2018-12-16T22:05:11.468Z,76.45
2018-12-16T22:07:39.891Z,76.64
2018-12-16T22:10:08.331Z,76.61
2018-12-16T22:12:36.673Z,77.21
2018-12-16T22:15:05.434Z,76.60
2018-12-16T22:17:33.734Z,75.46
2018-12-16T22:20:02.072Z,74.82
2018-12-16T22:22:30.462Z,75.12
2018-12-16T22:24:58.888Z,74.85
2018-12-16T22:27:27.224Z,74.98
2018-12-16T22:29:56.041Z,74.91
2018-12-16T22:32:24.325Z,74.24
2018-12-16T22:34:52.625Z,73.43
2018-12-16T22:37:21.198Z,74.63
2018-12-16T22:39:49.532Z,73.93
2018-12-16T22:42:17.814Z,74.48
2018-12-16T22:44:46.223Z,75.02
2018-12-16T22:47:14.541Z,75.37
2018-12-16T22:49:42.857Z,74.97
2018-12-16T22:52:11.665Z,75.14
2018-12-16T22:54:40.000Z,75.96
2018-12-16T22:57:08.302Z,76.54
2018-12-16T22:59:39.033Z,77.01
2018-12-16T23:02:07.446Z,76.79
2018-12-16T23:04:35.742Z,76.10
2018-12-16T23:07:04.073Z,76.49
2018-12-16T23:09:32.422Z,75.62
2018-12-16T23:12:00.783Z,75.01
2018-12-16T23:14:29.318Z,75.20
2018-12-16T23:16:57.655Z,75.52
2018-12-16T23:19:25.952Z,75.85
2018-12-16T23:21:54.283Z,74.88
2018-12-16T23:24:24.235Z,75.71
2018-12-16T23:26:52.603Z,75.29
2018-12-16T23:29:20.937Z,76.13
2018-12-16T23:31:49.216Z,76.39
2018-12-16T23:34:17.528Z,76.99
2018-12-16T23:36:46.245Z,76.39
2018-12-16T23:39:14.525Z,76.35
2018-12-16T23:41:42.845Z,76.17
2018-12-16T23:44:11.147Z,76.21
2018-12-16T23:46:39.442Z,77.07
2018-12-16T23:49:07.742Z,76.46
2018-12-16T23:51:36.109Z,77.76
2018-12-16T23:54:04.474Z,77.67
2018-12-16T23:56:32.767Z,77.64
2018-12-16T23:59:01.213Z,77.76
